Aviation Digital Data Service (ADDS)

Output produced by METARs form (1632 UTC 03 June 2020)
found at http://www.aviationweather.gov/metar/data/
 
METAR text: EKCH 031620Z AUTO 16008KT 9999 NCD 16/07 Q1006 NOSIG
Conditions at: EKCH (COPENHAGEN/KASTR, DK) observed 1620 UTC 03 June 2020
Temperature: 16.0°C (61°F)
Dewpoint: 7.0°C (45°F) [RH = 55%]
Pressure (altimeter): 29.70 inches Hg (1006.0 mb)
Winds: from the SSE (160 degrees) at 9 MPH (8 knots; 4.1 m/s)
Visibility: 6 or more miles (10+ km)
Ceiling: at least 12,000 feet AGL
Clouds: sky clear below 12,000 feet AGL
Weather: no significant weather observed at this time

METAR text: EKCH 031550Z AUTO 16010KT 9999 FEW071/// 16/07 Q1007 NOSIG
Conditions at: EKCH (COPENHAGEN/KASTR, DK) observed 1550 UTC 03 June 2020
Temperature: 16.0°C (61°F)
Dewpoint: 7.0°C (45°F) [RH = 55%]
Pressure (altimeter): 29.73 inches Hg (1007.0 mb)
Winds: from the SSE (160 degrees) at 12 MPH (10 knots; 5.1 m/s)
Visibility: 6 or more miles (10+ km)
Ceiling: at least 12,000 feet AGL
Clouds: few clouds at 7100 feet AGL
Weather: no significant weather observed at this time

METAR text: EKCH 031520Z AUTO 17011KT 9999 NCD 16/06 Q1007 NOSIG
Conditions at: EKCH (COPENHAGEN/KASTR, DK) observed 1520 UTC 03 June 2020
Temperature: 16.0°C (61°F)
Dewpoint: 6.0°C (43°F) [RH = 51%]
Pressure (altimeter): 29.73 inches Hg (1007.0 mb)
Winds: from the S (170 degrees) at 13 MPH (11 knots; 5.7 m/s)
Visibility: 6 or more miles (10+ km)
Ceiling: at least 12,000 feet AGL
Clouds: sky clear below 12,000 feet AGL
Weather: no significant weather observed at this time

METAR text: EKCH 031450Z AUTO 17012KT 9999 NCD 16/07 Q1007 NOSIG
Conditions at: EKCH (COPENHAGEN/KASTR, DK) observed 1450 UTC 03 June 2020
Temperature: 16.0°C (61°F)
Dewpoint: 7.0°C (45°F) [RH = 55%]
Pressure (altimeter): 29.73 inches Hg (1007.0 mb)
Winds: from the S (170 degrees) at 14 MPH (12 knots; 6.2 m/s)
Visibility: 6 or more miles (10+ km)
Ceiling: at least 12,000 feet AGL
Clouds: sky clear below 12,000 feet AGL
Weather: no significant weather observed at this time

METAR text: EKCH 031420Z AUTO 17012KT 9999 FEW091/// 16/07 Q1007 NOSIG
Conditions at: EKCH (COPENHAGEN/KASTR, DK) observed 1420 UTC 03 June 2020
Temperature: 16.0°C (61°F)
Dewpoint: 7.0°C (45°F) [RH = 55%]
Pressure (altimeter): 29.73 inches Hg (1007.0 mb)
Winds: from the S (170 degrees) at 14 MPH (12 knots; 6.2 m/s)
Visibility: 6 or more miles (10+ km)
Ceiling: at least 12,000 feet AGL
Clouds: few clouds at 9100 feet AGL
Weather: no significant weather observed at this time

METAR text: EKCH 031350Z AUTO 17012KT 9999 FEW089/// 15/06 Q1008 NOSIG
Conditions at: EKCH (COPENHAGEN/KASTR, DK) observed 1350 UTC 03 June 2020
Temperature: 15.0°C (59°F)
Dewpoint: 6.0°C (43°F) [RH = 55%]
Pressure (altimeter): 29.76 inches Hg (1008.0 mb)
Winds: from the S (170 degrees) at 14 MPH (12 knots; 6.2 m/s)
Visibility: 6 or more miles (10+ km)
Ceiling: at least 12,000 feet AGL
Clouds: few clouds at 8900 feet AGL
Weather: no significant weather observed at this time

METAR text: EKCH 031320Z AUTO 17012KT 9999 FEW092/// 16/08 Q1008 NOSIG
Conditions at: EKCH (COPENHAGEN/KASTR, DK) observed 1320 UTC 03 June 2020
Temperature: 16.0°C (61°F)
Dewpoint: 8.0°C (46°F) [RH = 59%]
Pressure (altimeter): 29.76 inches Hg (1008.0 mb)
Winds: from the S (170 degrees) at 14 MPH (12 knots; 6.2 m/s)
Visibility: 6 or more miles (10+ km)
Ceiling: at least 12,000 feet AGL
Clouds: few clouds at 9200 feet AGL
Weather: no significant weather observed at this time

METAR text: EKCH 031250Z AUTO 17012KT 9999 NCD 16/07 Q1008 NOSIG
Conditions at: EKCH (COPENHAGEN/KASTR, DK) observed 1250 UTC 03 June 2020
Temperature: 16.0°C (61°F)
Dewpoint: 7.0°C (45°F) [RH = 55%]
Pressure (altimeter): 29.76 inches Hg (1008.0 mb)
Winds: from the S (170 degrees) at 14 MPH (12 knots; 6.2 m/s)
Visibility: 6 or more miles (10+ km)
Ceiling: at least 12,000 feet AGL
Clouds: sky clear below 12,000 feet AGL
Weather: no significant weather observed at this time

METAR text: EKCH 031220Z AUTO 17011KT 140V200 9999 FEW094/// 16/08 Q1008 NOSIG
Conditions at: EKCH (COPENHAGEN/KASTR, DK) observed 1220 UTC 03 June 2020
Temperature: 16.0°C (61°F)
Dewpoint: 8.0°C (46°F) [RH = 59%]
Pressure (altimeter): 29.76 inches Hg (1008.0 mb)
Winds: from the S (170 degrees) at 13 MPH (11 knots; 5.7 m/s)
Visibility: 6 or more miles (10+ km)
Ceiling: at least 12,000 feet AGL
Clouds: few clouds at 9400 feet AGL
Weather: no significant weather observed at this time

METAR text: EKCH 031150Z AUTO 18010KT 150V210 9999 BKN078/// BKN093/// 16/09 Q1009 NOSIG
Conditions at: EKCH (COPENHAGEN/KASTR, DK) observed 1150 UTC 03 June 2020
Temperature: 16.0°C (61°F)
Dewpoint: 9.0°C (48°F) [RH = 63%]
Pressure (altimeter): 29.79 inches Hg (1009.0 mb)
Winds: from the S (180 degrees) at 12 MPH (10 knots; 5.1 m/s)
Visibility: 6 or more miles (10+ km)
Ceiling: 7800 feet AGL
Clouds: broken clouds at 7800 feet AGL
broken clouds at 9300 feet AGL
Weather: no significant weather observed at this time

METAR text: EKCH 031120Z AUTO 17010KT 9999 FEW078/// 17/09 Q1009 NOSIG
Conditions at: EKCH (COPENHAGEN/KASTR, DK) observed 1120 UTC 03 June 2020
Temperature: 17.0°C (63°F)
Dewpoint: 9.0°C (48°F) [RH = 59%]
Pressure (altimeter): 29.79 inches Hg (1009.0 mb)
Winds: from the S (170 degrees) at 12 MPH (10 knots; 5.1 m/s)
Visibility: 6 or more miles (10+ km)
Ceiling: at least 12,000 feet AGL
Clouds: few clouds at 7800 feet AGL
Weather: no significant weather observed at this time

METAR text: EKCH 031050Z AUTO 17012KT 9999 NCD 16/09 Q1009 NOSIG
Conditions at: EKCH (COPENHAGEN/KASTR, DK) observed 1050 UTC 03 June 2020
Temperature: 16.0°C (61°F)
Dewpoint: 9.0°C (48°F) [RH = 63%]
Pressure (altimeter): 29.79 inches Hg (1009.0 mb)
Winds: from the S (170 degrees) at 14 MPH (12 knots; 6.2 m/s)
Visibility: 6 or more miles (10+ km)
Ceiling: at least 12,000 feet AGL
Clouds: sky clear below 12,000 feet AGL
Weather: no significant weather observed at this time

METAR text: EKCH 031020Z AUTO 16011KT 150V210 9999 NCD 15/08 Q1009 NOSIG
Conditions at: EKCH (COPENHAGEN/KASTR, DK) observed 1020 UTC 03 June 2020
Temperature: 15.0°C (59°F)
Dewpoint: 8.0°C (46°F) [RH = 63%]
Pressure (altimeter): 29.79 inches Hg (1009.0 mb)
Winds: from the SSE (160 degrees) at 13 MPH (11 knots; 5.7 m/s)
Visibility: 6 or more miles (10+ km)
Ceiling: at least 12,000 feet AGL
Clouds: sky clear below 12,000 feet AGL
Weather: no significant weather observed at this time

METAR text: EKCH 030950Z AUTO 18011KT 150V210 9999 NCD 15/09 Q1009 NOSIG
Conditions at: EKCH (COPENHAGEN/KASTR, DK) observed 0950 UTC 03 June 2020
Temperature: 15.0°C (59°F)
Dewpoint: 9.0°C (48°F) [RH = 67%]
Pressure (altimeter): 29.79 inches Hg (1009.0 mb)
Winds: from the S (180 degrees) at 13 MPH (11 knots; 5.7 m/s)
Visibility: 6 or more miles (10+ km)
Ceiling: at least 12,000 feet AGL
Clouds: sky clear below 12,000 feet AGL
Weather: no significant weather observed at this time

METAR text: EKCH 030920Z AUTO 16009KT 140V200 9999 NCD 16/08 Q1009 NOSIG
Conditions at: EKCH (COPENHAGEN/KASTR, DK) observed 0920 UTC 03 June 2020
Temperature: 16.0°C (61°F)
Dewpoint: 8.0°C (46°F) [RH = 59%]
Pressure (altimeter): 29.79 inches Hg (1009.0 mb)
Winds: from the SSE (160 degrees) at 10 MPH (9 knots; 4.6 m/s)
Visibility: 6 or more miles (10+ km)
Ceiling: at least 12,000 feet AGL
Clouds: sky clear below 12,000 feet AGL
Weather: no significant weather observed at this time

METAR text: EKCH 030850Z AUTO 17008KT 140V200 9999 NCD 16/09 Q1009 NOSIG
Conditions at: EKCH (COPENHAGEN/KASTR, DK) observed 0850 UTC 03 June 2020
Temperature: 16.0°C (61°F)
Dewpoint: 9.0°C (48°F) [RH = 63%]
Pressure (altimeter): 29.79 inches Hg (1009.0 mb)
Winds: from the S (170 degrees) at 9 MPH (8 knots; 4.1 m/s)
Visibility: 6 or more miles (10+ km)
Ceiling: at least 12,000 feet AGL
Clouds: sky clear below 12,000 feet AGL
Weather: no significant weather observed at this time

METAR text: EKCH 030820Z AUTO 17007KT 140V200 9999 NCD 15/08 Q1009 NOSIG
Conditions at: EKCH (COPENHAGEN/KASTR, DK) observed 0820 UTC 03 June 2020
Temperature: 15.0°C (59°F)
Dewpoint: 8.0°C (46°F) [RH = 63%]
Pressure (altimeter): 29.79 inches Hg (1009.0 mb)
Winds: from the S (170 degrees) at 8 MPH (7 knots; 3.6 m/s)
Visibility: 6 or more miles (10+ km)
Ceiling: at least 12,000 feet AGL
Clouds: sky clear below 12,000 feet AGL
Weather: no significant weather observed at this time

METAR text: EKCH 030750Z AUTO 16006KT 120V190 9999 NCD 15/07 Q1010 NOSIG
Conditions at: EKCH (COPENHAGEN/KASTR, DK) observed 0750 UTC 03 June 2020
Temperature: 15.0°C (59°F)
Dewpoint: 7.0°C (45°F) [RH = 59%]
Pressure (altimeter): 29.82 inches Hg (1010.0 mb)
Winds: from the SSE (160 degrees) at 7 MPH (6 knots; 3.1 m/s)
Visibility: 6 or more miles (10+ km)
Ceiling: at least 12,000 feet AGL
Clouds: sky clear below 12,000 feet AGL
Weather: no significant weather observed at this time

METAR text: EKCH 030720Z AUTO 15006KT 120V180 9999 NCD 15/07 Q1010 NOSIG
Conditions at: EKCH (COPENHAGEN/KASTR, DK) observed 0720 UTC 03 June 2020
Temperature: 15.0°C (59°F)
Dewpoint: 7.0°C (45°F) [RH = 59%]
Pressure (altimeter): 29.82 inches Hg (1010.0 mb)
Winds: from the SSE (150 degrees) at 7 MPH (6 knots; 3.1 m/s)
Visibility: 6 or more miles (10+ km)
Ceiling: at least 12,000 feet AGL
Clouds: sky clear below 12,000 feet AGL
Weather: no significant weather observed at this time

METAR text: EKCH 030650Z AUTO 12007KT 9999 NCD 14/09 Q1010 NOSIG
Conditions at: EKCH (COPENHAGEN/KASTR, DK) observed 0650 UTC 03 June 2020
Temperature: 14.0°C (57°F)
Dewpoint: 9.0°C (48°F) [RH = 72%]
Pressure (altimeter): 29.82 inches Hg (1010.0 mb)
Winds: from the ESE (120 degrees) at 8 MPH (7 knots; 3.6 m/s)
Visibility: 6 or more miles (10+ km)
Ceiling: at least 12,000 feet AGL
Clouds: sky clear below 12,000 feet AGL
Weather: no significant weather observed at this time

METAR text: EKCH 030620Z AUTO 13007KT 9999 NCD 14/08 Q1010 NOSIG
Conditions at: EKCH (COPENHAGEN/KASTR, DK) observed 0620 UTC 03 June 2020
Temperature: 14.0°C (57°F)
Dewpoint: 8.0°C (46°F) [RH = 67%]
Pressure (altimeter): 29.82 inches Hg (1010.0 mb)
Winds: from the SE (130 degrees) at 8 MPH (7 knots; 3.6 m/s)
Visibility: 6 or more miles (10+ km)
Ceiling: at least 12,000 feet AGL
Clouds: sky clear below 12,000 feet AGL
Weather: no significant weather observed at this time

METAR text: EKCH 030550Z AUTO 12006KT 9999 FEW094/// 13/10 Q1010 NOSIG
Conditions at: EKCH (COPENHAGEN/KASTR, DK) observed 0550 UTC 03 June 2020
Temperature: 13.0°C (55°F)
Dewpoint: 10.0°C (50°F) [RH = 82%]
Pressure (altimeter): 29.82 inches Hg (1010.0 mb)
Winds: from the ESE (120 degrees) at 7 MPH (6 knots; 3.1 m/s)
Visibility: 6 or more miles (10+ km)
Ceiling: at least 12,000 feet AGL
Clouds: few clouds at 9400 feet AGL
Weather: no significant weather observed at this time

METAR text: EKCH 030520Z AUTO 13006KT 9999 FEW095/// 14/09 Q1010 NOSIG
Conditions at: EKCH (COPENHAGEN/KASTR, DK) observed 0520 UTC 03 June 2020
Temperature: 14.0°C (57°F)
Dewpoint: 9.0°C (48°F) [RH = 72%]
Pressure (altimeter): 29.82 inches Hg (1010.0 mb)
Winds: from the SE (130 degrees) at 7 MPH (6 knots; 3.1 m/s)
Visibility: 6 or more miles (10+ km)
Ceiling: at least 12,000 feet AGL
Clouds: few clouds at 9500 feet AGL
Weather: no significant weather observed at this time

METAR text: EKCH 030450Z AUTO 13006KT 9999 FEW093/// 13/09 Q1010 NOSIG
Conditions at: EKCH (COPENHAGEN/KASTR, DK) observed 0450 UTC 03 June 2020
Temperature: 13.0°C (55°F)
Dewpoint: 9.0°C (48°F) [RH = 77%]
Pressure (altimeter): 29.82 inches Hg (1010.0 mb)
Winds: from the SE (130 degrees) at 7 MPH (6 knots; 3.1 m/s)
Visibility: 6 or more miles (10+ km)
Ceiling: at least 12,000 feet AGL
Clouds: few clouds at 9300 feet AGL
Weather: no significant weather observed at this time

METAR text: EKCH 030420Z AUTO 13004KT 090V160 9999 NCD 13/10 Q1010 NOSIG
Conditions at: EKCH (COPENHAGEN/KASTR, DK) observed 0420 UTC 03 June 2020
Temperature: 13.0°C (55°F)
Dewpoint: 10.0°C (50°F) [RH = 82%]
Pressure (altimeter): 29.82 inches Hg (1010.0 mb)
Winds: from the SE (130 degrees) at 5 MPH (4 knots; 2.1 m/s)
Visibility: 6 or more miles (10+ km)
Ceiling: at least 12,000 feet AGL
Clouds: sky clear below 12,000 feet AGL
Weather: no significant weather observed at this time

METAR text: EKCH 030350Z AUTO 13005KT 110V170 9999 NCD 12/10 Q1010 NOSIG
Conditions at: EKCH (COPENHAGEN/KASTR, DK) observed 0350 UTC 03 June 2020
Temperature: 12.0°C (54°F)
Dewpoint: 10.0°C (50°F) [RH = 88%]
Pressure (altimeter): 29.82 inches Hg (1010.0 mb)
Winds: from the SE (130 degrees) at 6 MPH (5 knots; 2.6 m/s)
Visibility: 6 or more miles (10+ km)
Ceiling: at least 12,000 feet AGL
Clouds: sky clear below 12,000 feet AGL
Weather: no significant weather observed at this time

METAR text: EKCH 030320Z AUTO 12005KT 9999 NCD 12/10 Q1010 NOSIG
Conditions at: EKCH (COPENHAGEN/KASTR, DK) observed 0320 UTC 03 June 2020
Temperature: 12.0°C (54°F)
Dewpoint: 10.0°C (50°F) [RH = 88%]
Pressure (altimeter): 29.82 inches Hg (1010.0 mb)
Winds: from the ESE (120 degrees) at 6 MPH (5 knots; 2.6 m/s)
Visibility: 6 or more miles (10+ km)
Ceiling: at least 12,000 feet AGL
Clouds: sky clear below 12,000 feet AGL
Weather: no significant weather observed at this time

METAR text: EKCH 030250Z AUTO 12005KT 9999 NCD 12/10 Q1011 NOSIG
Conditions at: EKCH (COPENHAGEN/KASTR, DK) observed 0250 UTC 03 June 2020
Temperature: 12.0°C (54°F)
Dewpoint: 10.0°C (50°F) [RH = 88%]
Pressure (altimeter): 29.85 inches Hg (1011.0 mb)
Winds: from the ESE (120 degrees) at 6 MPH (5 knots; 2.6 m/s)
Visibility: 6 or more miles (10+ km)
Ceiling: at least 12,000 feet AGL
Clouds: sky clear below 12,000 feet AGL
Weather: no significant weather observed at this time

METAR text: EKCH 030220Z AUTO 13005KT 9999 NCD 12/08 Q1011 NOSIG
Conditions at: EKCH (COPENHAGEN/KASTR, DK) observed 0220 UTC 03 June 2020
Temperature: 12.0°C (54°F)
Dewpoint: 8.0°C (46°F) [RH = 76%]
Pressure (altimeter): 29.85 inches Hg (1011.0 mb)
Winds: from the SE (130 degrees) at 6 MPH (5 knots; 2.6 m/s)
Visibility: 6 or more miles (10+ km)
Ceiling: at least 12,000 feet AGL
Clouds: sky clear below 12,000 feet AGL
Weather: no significant weather observed at this time

METAR text: EKCH 030150Z AUTO 15007KT 9999 NCD 12/09 Q1011 NOSIG
Conditions at: EKCH (COPENHAGEN/KASTR, DK) observed 0150 UTC 03 June 2020
Temperature: 12.0°C (54°F)
Dewpoint: 9.0°C (48°F) [RH = 82%]
Pressure (altimeter): 29.85 inches Hg (1011.0 mb)
Winds: from the SSE (150 degrees) at 8 MPH (7 knots; 3.6 m/s)
Visibility: 6 or more miles (10+ km)
Ceiling: at least 12,000 feet AGL
Clouds: sky clear below 12,000 feet AGL
Weather: no significant weather observed at this time

METAR text: EKCH 030120Z AUTO 15003KT 9999 NCD 12/10 Q1011 NOSIG
Conditions at: EKCH (COPENHAGEN/KASTR, DK) observed 0120 UTC 03 June 2020
Temperature: 12.0°C (54°F)
Dewpoint: 10.0°C (50°F) [RH = 88%]
Pressure (altimeter): 29.85 inches Hg (1011.0 mb)
Winds: from the SSE (150 degrees) at 3 MPH (3 knots; 1.5 m/s)
Visibility: 6 or more miles (10+ km)
Ceiling: at least 12,000 feet AGL
Clouds: sky clear below 12,000 feet AGL
Weather: no significant weather observed at this time

METAR text: EKCH 030050Z AUTO 15005KT 9999 NCD 13/10 Q1012 NOSIG
Conditions at: EKCH (COPENHAGEN/KASTR, DK) observed 0050 UTC 03 June 2020
Temperature: 13.0°C (55°F)
Dewpoint: 10.0°C (50°F) [RH = 82%]
Pressure (altimeter): 29.88 inches Hg (1012.0 mb)
Winds: from the SSE (150 degrees) at 6 MPH (5 knots; 2.6 m/s)
Visibility: 6 or more miles (10+ km)
Ceiling: at least 12,000 feet AGL
Clouds: sky clear below 12,000 feet AGL
Weather: no significant weather observed at this time

METAR text: EKCH 030020Z AUTO 15007KT 9999 NCD 13/11 Q1012 NOSIG
Conditions at: EKCH (COPENHAGEN/KASTR, DK) observed 0020 UTC 03 June 2020
Temperature: 13.0°C (55°F)
Dewpoint: 11.0°C (52°F) [RH = 88%]
Pressure (altimeter): 29.88 inches Hg (1012.0 mb)
Winds: from the SSE (150 degrees) at 8 MPH (7 knots; 3.6 m/s)
Visibility: 6 or more miles (10+ km)
Ceiling: at least 12,000 feet AGL
Clouds: sky clear below 12,000 feet AGL
Weather: no significant weather observed at this time

METAR text: EKCH 022350Z AUTO 16007KT 9999 NCD 13/11 Q1012 NOSIG
Conditions at: EKCH (COPENHAGEN/KASTR, DK) observed 2350 UTC 02 June 2020
Temperature: 13.0°C (55°F)
Dewpoint: 11.0°C (52°F) [RH = 88%]
Pressure (altimeter): 29.88 inches Hg (1012.0 mb)
Winds: from the SSE (160 degrees) at 8 MPH (7 knots; 3.6 m/s)
Visibility: 6 or more miles (10+ km)
Ceiling: at least 12,000 feet AGL
Clouds: sky clear below 12,000 feet AGL
Weather: no significant weather observed at this time

METAR text: EKCH 022320Z AUTO 15007KT 9999 NCD 13/11 Q1012 NOSIG
Conditions at: EKCH (COPENHAGEN/KASTR, DK) observed 2320 UTC 02 June 2020
Temperature: 13.0°C (55°F)
Dewpoint: 11.0°C (52°F) [RH = 88%]
Pressure (altimeter): 29.88 inches Hg (1012.0 mb)
Winds: from the SSE (150 degrees) at 8 MPH (7 knots; 3.6 m/s)
Visibility: 6 or more miles (10+ km)
Ceiling: at least 12,000 feet AGL
Clouds: sky clear below 12,000 feet AGL
Weather: no significant weather observed at this time

METAR text: EKCH 022250Z AUTO 14009KT 9999 NCD 13/11 Q1012 NOSIG
Conditions at: EKCH (COPENHAGEN/KASTR, DK) observed 2250 UTC 02 June 2020
Temperature: 13.0°C (55°F)
Dewpoint: 11.0°C (52°F) [RH = 88%]
Pressure (altimeter): 29.88 inches Hg (1012.0 mb)
Winds: from the SE (140 degrees) at 10 MPH (9 knots; 4.6 m/s)
Visibility: 6 or more miles (10+ km)
Ceiling: at least 12,000 feet AGL
Clouds: sky clear below 12,000 feet AGL
Weather: no significant weather observed at this time

METAR text: EKCH 022220Z AUTO 14009KT 9999 NCD 13/10 Q1013 NOSIG
Conditions at: EKCH (COPENHAGEN/KASTR, DK) observed 2220 UTC 02 June 2020
Temperature: 13.0°C (55°F)
Dewpoint: 10.0°C (50°F) [RH = 82%]
Pressure (altimeter): 29.91 inches Hg (1013.0 mb)
Winds: from the SE (140 degrees) at 10 MPH (9 knots; 4.6 m/s)
Visibility: 6 or more miles (10+ km)
Ceiling: at least 12,000 feet AGL
Clouds: sky clear below 12,000 feet AGL
Weather: no significant weather observed at this time

METAR text: EKCH 022150Z AUTO 15010KT 9999 NCD 14/10 Q1012 NOSIG
Conditions at: EKCH (COPENHAGEN/KASTR, DK) observed 2150 UTC 02 June 2020
Temperature: 14.0°C (57°F)
Dewpoint: 10.0°C (50°F) [RH = 77%]
Pressure (altimeter): 29.88 inches Hg (1012.0 mb)
Winds: from the SSE (150 degrees) at 12 MPH (10 knots; 5.1 m/s)
Visibility: 6 or more miles (10+ km)
Ceiling: at least 12,000 feet AGL
Clouds: sky clear below 12,000 feet AGL
Weather: no significant weather observed at this time

METAR text: EKCH 022120Z AUTO 15010KT 9999 NCD 15/10 Q1013 NOSIG
Conditions at: EKCH (COPENHAGEN/KASTR, DK) observed 2120 UTC 02 June 2020
Temperature: 15.0°C (59°F)
Dewpoint: 10.0°C (50°F) [RH = 72%]
Pressure (altimeter): 29.91 inches Hg (1013.0 mb)
Winds: from the SSE (150 degrees) at 12 MPH (10 knots; 5.1 m/s)
Visibility: 6 or more miles (10+ km)
Ceiling: at least 12,000 feet AGL
Clouds: sky clear below 12,000 feet AGL
Weather: no significant weather observed at this time

METAR text: EKCH 022050Z AUTO 05004KT 030V100 9999 NCD 17/10 Q1013 NOSIG
Conditions at: EKCH (COPENHAGEN/KASTR, DK) observed 2050 UTC 02 June 2020
Temperature: 17.0°C (63°F)
Dewpoint: 10.0°C (50°F) [RH = 63%]
Pressure (altimeter): 29.91 inches Hg (1013.0 mb)
Winds: from the NE (50 degrees) at 5 MPH (4 knots; 2.1 m/s)
Visibility: 6 or more miles (10+ km)
Ceiling: at least 12,000 feet AGL
Clouds: sky clear below 12,000 feet AGL
Weather: no significant weather observed at this time

METAR text: EKCH 022020Z AUTO 35004KT 9999 NCD 19/07 Q1013 NOSIG
Conditions at: EKCH (COPENHAGEN/KASTR, DK) observed 2020 UTC 02 June 2020
Temperature: 19.0°C (66°F)
Dewpoint: 7.0°C (45°F) [RH = 46%]
Pressure (altimeter): 29.91 inches Hg (1013.0 mb)
Winds: from the N (350 degrees) at 5 MPH (4 knots; 2.1 m/s)
Visibility: 6 or more miles (10+ km)
Ceiling: at least 12,000 feet AGL
Clouds: sky clear below 12,000 feet AGL
Weather: no significant weather observed at this time

METAR text: EKCH 021950Z AUTO 35004KT 9999 NCD 20/08 Q1013 NOSIG
Conditions at: EKCH (COPENHAGEN/KASTR, DK) observed 1950 UTC 02 June 2020
Temperature: 20.0°C (68°F)
Dewpoint: 8.0°C (46°F) [RH = 46%]
Pressure (altimeter): 29.91 inches Hg (1013.0 mb)
Winds: from the N (350 degrees) at 5 MPH (4 knots; 2.1 m/s)
Visibility: 6 or more miles (10+ km)
Ceiling: at least 12,000 feet AGL
Clouds: sky clear below 12,000 feet AGL
Weather: no significant weather observed at this time

METAR text: EKCH 021920Z AUTO 35004KT 9999 NCD 20/08 Q1013 NOSIG
Conditions at: EKCH (COPENHAGEN/KASTR, DK) observed 1920 UTC 02 June 2020
Temperature: 20.0°C (68°F)
Dewpoint: 8.0°C (46°F) [RH = 46%]
Pressure (altimeter): 29.91 inches Hg (1013.0 mb)
Winds: from the N (350 degrees) at 5 MPH (4 knots; 2.1 m/s)
Visibility: 6 or more miles (10+ km)
Ceiling: at least 12,000 feet AGL
Clouds: sky clear below 12,000 feet AGL
Weather: no significant weather observed at this time

METAR text: EKCH 021850Z AUTO 36007KT 9999 NCD 20/08 Q1013 NOSIG
Conditions at: EKCH (COPENHAGEN/KASTR, DK) observed 1850 UTC 02 June 2020
Temperature: 20.0°C (68°F)
Dewpoint: 8.0°C (46°F) [RH = 46%]
Pressure (altimeter): 29.91 inches Hg (1013.0 mb)
Winds: from the N (360 degrees) at 8 MPH (7 knots; 3.6 m/s)
Visibility: 6 or more miles (10+ km)
Ceiling: at least 12,000 feet AGL
Clouds: sky clear below 12,000 feet AGL
Weather: no significant weather observed at this time

METAR text: EKCH 021820Z AUTO 36008KT 9999 NCD 21/07 Q1013 NOSIG
Conditions at: EKCH (COPENHAGEN/KASTR, DK) observed 1820 UTC 02 June 2020
Temperature: 21.0°C (70°F)
Dewpoint: 7.0°C (45°F) [RH = 40%]
Pressure (altimeter): 29.91 inches Hg (1013.0 mb)
Winds: from the N (360 degrees) at 9 MPH (8 knots; 4.1 m/s)
Visibility: 6 or more miles (10+ km)
Ceiling: at least 12,000 feet AGL
Clouds: sky clear below 12,000 feet AGL
Weather: no significant weather observed at this time

METAR text: EKCH 021750Z AUTO 35010KT 9999 NCD 22/07 Q1014 NOSIG
Conditions at: EKCH (COPENHAGEN/KASTR, DK) observed 1750 UTC 02 June 2020
Temperature: 22.0°C (72°F)
Dewpoint: 7.0°C (45°F) [RH = 38%]
Pressure (altimeter): 29.94 inches Hg (1014.0 mb)
Winds: from the N (350 degrees) at 12 MPH (10 knots; 5.1 m/s)
Visibility: 6 or more miles (10+ km)
Ceiling: at least 12,000 feet AGL
Clouds: sky clear below 12,000 feet AGL
Weather: no significant weather observed at this time

METAR text: EKCH 021720Z AUTO 35010KT 9999 NCD 22/05 Q1014 NOSIG
Conditions at: EKCH (COPENHAGEN/KASTR, DK) observed 1720 UTC 02 June 2020
Temperature: 22.0°C (72°F)
Dewpoint: 5.0°C (41°F) [RH = 33%]
Pressure (altimeter): 29.94 inches Hg (1014.0 mb)
Winds: from the N (350 degrees) at 12 MPH (10 knots; 5.1 m/s)
Visibility: 6 or more miles (10+ km)
Ceiling: at least 12,000 feet AGL
Clouds: sky clear below 12,000 feet AGL
Weather: no significant weather observed at this time

METAR text: EKCH 021650Z AUTO 01012KT 9999 NCD 22/05 Q1015 NOSIG
Conditions at: EKCH (COPENHAGEN/KASTR, DK) observed 1650 UTC 02 June 2020
Temperature: 22.0°C (72°F)
Dewpoint: 5.0°C (41°F) [RH = 33%]
Pressure (altimeter): 29.97 inches Hg (1015.0 mb)
Winds: from the N (10 degrees) at 14 MPH (12 knots; 6.2 m/s)
Visibility: 6 or more miles (10+ km)
Ceiling: at least 12,000 feet AGL
Clouds: sky clear below 12,000 feet AGL
Weather: no significant weather observed at this time

METAR text: EKCH 021620Z AUTO 04015KT 9999 NCD 21/07 Q1015 NOSIG
Conditions at: EKCH (COPENHAGEN/KASTR, DK) observed 1620 UTC 02 June 2020
Temperature: 21.0°C (70°F)
Dewpoint: 7.0°C (45°F) [RH = 40%]
Pressure (altimeter): 29.97 inches Hg (1015.0 mb)
Winds: from the NE (40 degrees) at 17 MPH (15 knots; 7.7 m/s)
Visibility: 6 or more miles (10+ km)
Ceiling: at least 12,000 feet AGL
Clouds: sky clear below 12,000 feet AGL
Weather: no significant weather observed at this time

METAR text: EKCH 021550Z AUTO 03011KT 360V070 9999 FEW120/// 21/09 Q1015 NOSIG
Conditions at: EKCH (COPENHAGEN/KASTR, DK) observed 1550 UTC 02 June 2020
Temperature: 21.0°C (70°F)
Dewpoint: 9.0°C (48°F) [RH = 46%]
Pressure (altimeter): 29.97 inches Hg (1015.0 mb)
Winds: from the NNE (30 degrees) at 13 MPH (11 knots; 5.7 m/s)
Visibility: 6 or more miles (10+ km)
Ceiling: at least 12,000 feet AGL
Clouds: few clouds at 12000 feet AGL
Weather: no significant weather observed at this time

METAR text: EKCH 021520Z AUTO 36011KT 9999 NCD 23/07 Q1015 NOSIG
Conditions at: EKCH (COPENHAGEN/KASTR, DK) observed 1520 UTC 02 June 2020
Temperature: 23.0°C (73°F)
Dewpoint: 7.0°C (45°F) [RH = 36%]
Pressure (altimeter): 29.97 inches Hg (1015.0 mb)
Winds: from the N (360 degrees) at 13 MPH (11 knots; 5.7 m/s)
Visibility: 6 or more miles (10+ km)
Ceiling: at least 12,000 feet AGL
Clouds: sky clear below 12,000 feet AGL
Weather: no significant weather observed at this time

METAR text: EKCH 021450Z AUTO 36013KT 9999 NCD 24/08 Q1015 NOSIG
Conditions at: EKCH (COPENHAGEN/KASTR, DK) observed 1450 UTC 02 June 2020
Temperature: 24.0°C (75°F)
Dewpoint: 8.0°C (46°F) [RH = 36%]
Pressure (altimeter): 29.97 inches Hg (1015.0 mb)
Winds: from the N (360 degrees) at 15 MPH (13 knots; 6.7 m/s)
Visibility: 6 or more miles (10+ km)
Ceiling: at least 12,000 feet AGL
Clouds: sky clear below 12,000 feet AGL
Weather: no significant weather observed at this time

METAR text: EKCH 021420Z AUTO 35012KT 9999 NCD 25/06 Q1015 NOSIG
Conditions at: EKCH (COPENHAGEN/KASTR, DK) observed 1420 UTC 02 June 2020
Temperature: 25.0°C (77°F)
Dewpoint: 6.0°C (43°F) [RH = 30%]
Pressure (altimeter): 29.97 inches Hg (1015.0 mb)
Winds: from the N (350 degrees) at 14 MPH (12 knots; 6.2 m/s)
Visibility: 6 or more miles (10+ km)
Ceiling: at least 12,000 feet AGL
Clouds: sky clear below 12,000 feet AGL
Weather: no significant weather observed at this time

METAR text: EKCH 021350Z AUTO 36012KT 9999 NCD 25/07 Q1015 NOSIG
Conditions at: EKCH (COPENHAGEN/KASTR, DK) observed 1350 UTC 02 June 2020
Temperature: 25.0°C (77°F)
Dewpoint: 7.0°C (45°F) [RH = 32%]
Pressure (altimeter): 29.97 inches Hg (1015.0 mb)
Winds: from the N (360 degrees) at 14 MPH (12 knots; 6.2 m/s)
Visibility: 6 or more miles (10+ km)
Ceiling: at least 12,000 feet AGL
Clouds: sky clear below 12,000 feet AGL
Weather: no significant weather observed at this time

METAR text: EKCH 021320Z AUTO 36011KT 9999 NCD 23/08 Q1016 NOSIG
Conditions at: EKCH (COPENHAGEN/KASTR, DK) observed 1320 UTC 02 June 2020
Temperature: 23.0°C (73°F)
Dewpoint: 8.0°C (46°F) [RH = 38%]
Pressure (altimeter): 30.00 inches Hg (1016.0 mb)
Winds: from the N (360 degrees) at 13 MPH (11 knots; 5.7 m/s)
Visibility: 6 or more miles (10+ km)
Ceiling: at least 12,000 feet AGL
Clouds: sky clear below 12,000 feet AGL
Weather: no significant weather observed at this time

METAR text: EKCH 021250Z AUTO 01011KT 9999 NCD 24/08 Q1016 NOSIG
Conditions at: EKCH (COPENHAGEN/KASTR, DK) observed 1250 UTC 02 June 2020
Temperature: 24.0°C (75°F)
Dewpoint: 8.0°C (46°F) [RH = 36%]
Pressure (altimeter): 30.00 inches Hg (1016.0 mb)
Winds: from the N (10 degrees) at 13 MPH (11 knots; 5.7 m/s)
Visibility: 6 or more miles (10+ km)
Ceiling: at least 12,000 feet AGL
Clouds: sky clear below 12,000 feet AGL
Weather: no significant weather observed at this time

METAR text: EKCH 021220Z AUTO 36012KT 9999 NCD 24/08 Q1016 NOSIG
Conditions at: EKCH (COPENHAGEN/KASTR, DK) observed 1220 UTC 02 June 2020
Temperature: 24.0°C (75°F)
Dewpoint: 8.0°C (46°F) [RH = 36%]
Pressure (altimeter): 30.00 inches Hg (1016.0 mb)
Winds: from the N (360 degrees) at 14 MPH (12 knots; 6.2 m/s)
Visibility: 6 or more miles (10+ km)
Ceiling: at least 12,000 feet AGL
Clouds: sky clear below 12,000 feet AGL
Weather: no significant weather observed at this time

METAR text: EKCH 021150Z AUTO 36012KT 9999 NCD 24/08 Q1017 NOSIG
Conditions at: EKCH (COPENHAGEN/KASTR, DK) observed 1150 UTC 02 June 2020
Temperature: 24.0°C (75°F)
Dewpoint: 8.0°C (46°F) [RH = 36%]
Pressure (altimeter): 30.03 inches Hg (1017.0 mb)
Winds: from the N (360 degrees) at 14 MPH (12 knots; 6.2 m/s)
Visibility: 6 or more miles (10+ km)
Ceiling: at least 12,000 feet AGL
Clouds: sky clear below 12,000 feet AGL
Weather: no significant weather observed at this time

METAR text: EKCH 021120Z AUTO 36011KT 9999 NCD 23/08 Q1017 NOSIG
Conditions at: EKCH (COPENHAGEN/KASTR, DK) observed 1120 UTC 02 June 2020
Temperature: 23.0°C (73°F)
Dewpoint: 8.0°C (46°F) [RH = 38%]
Pressure (altimeter): 30.03 inches Hg (1017.0 mb)
Winds: from the N (360 degrees) at 13 MPH (11 knots; 5.7 m/s)
Visibility: 6 or more miles (10+ km)
Ceiling: at least 12,000 feet AGL
Clouds: sky clear below 12,000 feet AGL
Weather: no significant weather observed at this time

METAR text: EKCH 021050Z AUTO 36012KT 9999 NCD 23/07 Q1018 NOSIG
Conditions at: EKCH (COPENHAGEN/KASTR, DK) observed 1050 UTC 02 June 2020
Temperature: 23.0°C (73°F)
Dewpoint: 7.0°C (45°F) [RH = 36%]
Pressure (altimeter): 30.06 inches Hg (1018.0 mb)
Winds: from the N (360 degrees) at 14 MPH (12 knots; 6.2 m/s)
Visibility: 6 or more miles (10+ km)
Ceiling: at least 12,000 feet AGL
Clouds: sky clear below 12,000 feet AGL
Weather: no significant weather observed at this time

METAR text: EKCH 021020Z AUTO 01013KT 9999 NCD 23/08 Q1018 NOSIG
Conditions at: EKCH (COPENHAGEN/KASTR, DK) observed 1020 UTC 02 June 2020
Temperature: 23.0°C (73°F)
Dewpoint: 8.0°C (46°F) [RH = 38%]
Pressure (altimeter): 30.06 inches Hg (1018.0 mb)
Winds: from the N (10 degrees) at 15 MPH (13 knots; 6.7 m/s)
Visibility: 6 or more miles (10+ km)
Ceiling: at least 12,000 feet AGL
Clouds: sky clear below 12,000 feet AGL
Weather: no significant weather observed at this time

METAR text: EKCH 020950Z AUTO 36011KT 9999 NCD 24/09 Q1018 NOSIG
Conditions at: EKCH (COPENHAGEN/KASTR, DK) observed 0950 UTC 02 June 2020
Temperature: 24.0°C (75°F)
Dewpoint: 9.0°C (48°F) [RH = 38%]
Pressure (altimeter): 30.06 inches Hg (1018.0 mb)
Winds: from the N (360 degrees) at 13 MPH (11 knots; 5.7 m/s)
Visibility: 6 or more miles (10+ km)
Ceiling: at least 12,000 feet AGL
Clouds: sky clear below 12,000 feet AGL
Weather: no significant weather observed at this time

METAR text: EKCH 020920Z AUTO 36009KT 330V030 9999 NCD 24/09 Q1018 NOSIG
Conditions at: EKCH (COPENHAGEN/KASTR, DK) observed 0920 UTC 02 June 2020
Temperature: 24.0°C (75°F)
Dewpoint: 9.0°C (48°F) [RH = 38%]
Pressure (altimeter): 30.06 inches Hg (1018.0 mb)
Winds: from the N (360 degrees) at 10 MPH (9 knots; 4.6 m/s)
Visibility: 6 or more miles (10+ km)
Ceiling: at least 12,000 feet AGL
Clouds: sky clear below 12,000 feet AGL
Weather: no significant weather observed at this time

METAR text: EKCH 020850Z AUTO 33008KT 280V360 9999 NCD 24/09 Q1019 NOSIG
Conditions at: EKCH (COPENHAGEN/KASTR, DK) observed 0850 UTC 02 June 2020
Temperature: 24.0°C (75°F)
Dewpoint: 9.0°C (48°F) [RH = 38%]
Pressure (altimeter): 30.09 inches Hg (1019.0 mb)
Winds: from the NNW (330 degrees) at 9 MPH (8 knots; 4.1 m/s)
Visibility: 6 or more miles (10+ km)
Ceiling: at least 12,000 feet AGL
Clouds: sky clear below 12,000 feet AGL
Weather: no significant weather observed at this time

METAR text: EKCH 020820Z AUTO 32010KT 290V360 9999 NCD 23/09 Q1019 NOSIG
Conditions at: EKCH (COPENHAGEN/KASTR, DK) observed 0820 UTC 02 June 2020
Temperature: 23.0°C (73°F)
Dewpoint: 9.0°C (48°F) [RH = 41%]
Pressure (altimeter): 30.09 inches Hg (1019.0 mb)
Winds: from the NW (320 degrees) at 12 MPH (10 knots; 5.1 m/s)
Visibility: 6 or more miles (10+ km)
Ceiling: at least 12,000 feet AGL
Clouds: sky clear below 12,000 feet AGL
Weather: no significant weather observed at this time

METAR text: EKCH 020750Z AUTO 33009KT 310V010 9999 NCD 22/08 Q1019 NOSIG
Conditions at: EKCH (COPENHAGEN/KASTR, DK) observed 0750 UTC 02 June 2020
Temperature: 22.0°C (72°F)
Dewpoint: 8.0°C (46°F) [RH = 41%]
Pressure (altimeter): 30.09 inches Hg (1019.0 mb)
Winds: from the NNW (330 degrees) at 10 MPH (9 knots; 4.6 m/s)
Visibility: 6 or more miles (10+ km)
Ceiling: at least 12,000 feet AGL
Clouds: sky clear below 12,000 feet AGL
Weather: no significant weather observed at this time

METAR text: EKCH 020720Z AUTO 33009KT 290V360 9999 NCD 22/09 Q1020 NOSIG
Conditions at: EKCH (COPENHAGEN/KASTR, DK) observed 0720 UTC 02 June 2020
Temperature: 22.0°C (72°F)
Dewpoint: 9.0°C (48°F) [RH = 43%]
Pressure (altimeter): 30.12 inches Hg (1020.0 mb)
Winds: from the NNW (330 degrees) at 10 MPH (9 knots; 4.6 m/s)
Visibility: 6 or more miles (10+ km)
Ceiling: at least 12,000 feet AGL
Clouds: sky clear below 12,000 feet AGL
Weather: no significant weather observed at this time

METAR text: EKCH 020650Z AUTO 32010KT 290V350 9999 NCD 21/08 Q1020 NOSIG
Conditions at: EKCH (COPENHAGEN/KASTR, DK) observed 0650 UTC 02 June 2020
Temperature: 21.0°C (70°F)
Dewpoint: 8.0°C (46°F) [RH = 43%]
Pressure (altimeter): 30.12 inches Hg (1020.0 mb)
Winds: from the NW (320 degrees) at 12 MPH (10 knots; 5.1 m/s)
Visibility: 6 or more miles (10+ km)
Ceiling: at least 12,000 feet AGL
Clouds: sky clear below 12,000 feet AGL
Weather: no significant weather observed at this time

METAR text: EKCH 020620Z AUTO 31008KT 290V350 9999 NCD 20/08 Q1020 NOSIG
Conditions at: EKCH (COPENHAGEN/KASTR, DK) observed 0620 UTC 02 June 2020
Temperature: 20.0°C (68°F)
Dewpoint: 8.0°C (46°F) [RH = 46%]
Pressure (altimeter): 30.12 inches Hg (1020.0 mb)
Winds: from the NW (310 degrees) at 9 MPH (8 knots; 4.1 m/s)
Visibility: 6 or more miles (10+ km)
Ceiling: at least 12,000 feet AGL
Clouds: sky clear below 12,000 feet AGL
Weather: no significant weather observed at this time

METAR text: EKCH 020550Z AUTO 31007KT 9999 NCD 19/08 Q1020 NOSIG
Conditions at: EKCH (COPENHAGEN/KASTR, DK) observed 0550 UTC 02 June 2020
Temperature: 19.0°C (66°F)
Dewpoint: 8.0°C (46°F) [RH = 49%]
Pressure (altimeter): 30.12 inches Hg (1020.0 mb)
Winds: from the NW (310 degrees) at 8 MPH (7 knots; 3.6 m/s)
Visibility: 6 or more miles (10+ km)
Ceiling: at least 12,000 feet AGL
Clouds: sky clear below 12,000 feet AGL
Weather: no significant weather observed at this time

METAR text: EKCH 020520Z AUTO 32007KT 9999 NCD 18/09 Q1020 NOSIG
Conditions at: EKCH (COPENHAGEN/KASTR, DK) observed 0520 UTC 02 June 2020
Temperature: 18.0°C (64°F)
Dewpoint: 9.0°C (48°F) [RH = 56%]
Pressure (altimeter): 30.12 inches Hg (1020.0 mb)
Winds: from the NW (320 degrees) at 8 MPH (7 knots; 3.6 m/s)
Visibility: 6 or more miles (10+ km)
Ceiling: at least 12,000 feet AGL
Clouds: sky clear below 12,000 feet AGL
Weather: no significant weather observed at this time

METAR text: EKCH 020450Z AUTO 30005KT 9999 NCD 16/09 Q1020 NOSIG
Conditions at: EKCH (COPENHAGEN/KASTR, DK) observed 0450 UTC 02 June 2020
Temperature: 16.0°C (61°F)
Dewpoint: 9.0°C (48°F) [RH = 63%]
Pressure (altimeter): 30.12 inches Hg (1020.0 mb)
Winds: from the WNW (300 degrees) at 6 MPH (5 knots; 2.6 m/s)
Visibility: 6 or more miles (10+ km)
Ceiling: at least 12,000 feet AGL
Clouds: sky clear below 12,000 feet AGL
Weather: no significant weather observed at this time

Forecast for: EKCH (COPENHAGEN/KASTR, DK)
Text: TAF EKCH 031058Z 0312/0412 18010KT CAVOK
Forecast period: 1200 to 1600 UTC 03 June 2020
Forecast type: FROM: standard forecast or significant change
Winds: from the S (180 degrees) at 12 MPH (10 knots; 5.1 m/s)
Visibility: 6 or more miles 10+ km)
Ceiling: unknown
Clouds: missing
Weather: NSW  (no significant weather)
Text: BECMG 0316/0318 10010KT
Forecast period: 1600 UTC 03 June 2020 to 1200 UTC 04 June 2020
Forecast type: BECOMING: Conditions expected to become as follows by 1800 UTC 03 June 2020
Winds: from the E (100 degrees) at 12 MPH (10 knots; 5.1 m/s)
Visibility: 6 or more miles 10+ km)
Ceiling: unknown
Clouds: missing
Weather: NSW  (no significant weather)
Text: TEMPO 0407/0412 11015G25KT
Forecast period: 0700 to 1200 UTC 04 June 2020
Forecast type: TEMPORARY: The following changes expected for less than half the time period
Winds: from the ESE (110 degrees) at 17 MPH (15 knots; 7.7 m/s)
gusting to 29 MPH (25 knots; 12.9 m/s)
Visibility: missing
Ceiling: unknown
Clouds: missing
Weather: no significant weather forecast for this period